Time;durP1;ratioP1;P1;durP2;ratioP2;P2;SDS_P1;SDS_P2;PMS_P1;PMS_P2;Temp;Humidity;BMP_temperature;BMP_pressure;BME280_temperature;BME280_humidity;BME280_pressure;Samples;Min_cycle;Max_cycle;Signal;HPM_P1;HPM_P2
2022/08/10 00:01:28;;;;;;;7.73;5.80;;;23.80;64.90;;;24.40;49.64;95087.47;4999606;28;21097;-59
2022/08/10 00:03:56;;;;;;;6.57;6.07;;;23.70;65.20;;;24.39;49.67;95087.69;4996649;28;20505;-60
2022/08/10 00:06:23;;;;;;;6.37;5.77;;;23.70;65.50;;;24.38;49.81;95083.34;5002641;28;21007;-59
2022/08/10 00:08:50;;;;;;;11.30;6.83;;;23.70;65.80;;;24.37;50.07;95081.69;5000183;28;20457;-62
2022/08/10 00:11:18;;;;;;;6.93;6.20;;;23.70;66.00;;;24.36;50.60;95072.00;5000365;28;20887;-59
2022/08/10 00:13:45;;;;;;;9.70;5.77;;;23.70;66.20;;;24.34;50.10;95081.09;4996754;28;21013;-63
2022/08/10 00:16:12;;;;;;;7.00;6.40;;;23.70;66.30;;;24.33;50.24;95078.66;4999201;28;20520;-62
2022/08/10 00:18:41;;;;;;;8.90;6.33;;;23.70;66.80;;;24.32;51.06;95077.81;4999116;28;20928;-61
2022/08/10 00:21:08;;;;;;;9.00;6.27;;;23.70;67.20;;;24.30;50.39;95077.22;4996420;28;20515;-63
2022/08/10 00:23:36;;;;;;;6.17;5.67;;;23.70;67.00;;;24.29;51.21;95075.59;4999169;28;20481;-59
2022/08/10 00:26:03;;;;;;;6.87;6.10;;;23.60;67.40;;;24.27;50.64;95077.66;4998348;28;20485;-59
2022/08/10 00:28:31;;;;;;;9.23;6.10;;;23.60;67.50;;;24.25;50.68;95076.25;4998824;28;20874;-63
2022/08/10 00:30:58;;;;;;;6.60;5.90;;;23.60;67.40;;;24.24;51.50;95082.66;5001190;28;20453;-63
2022/08/10 00:33:25;;;;;;;9.40;6.60;;;23.60;67.90;;;24.21;51.65;95080.41;4998040;28;20509;-60
2022/08/10 00:35:54;;;;;;;6.40;5.80;;;23.50;68.10;;;24.19;51.12;95072.56;4999795;28;20944;-59
2022/08/10 00:38:21;;;;;;;7.57;6.50;;;23.50;68.70;;;24.16;51.31;95076.50;4999723;28;20461;-62
2022/08/10 00:40:48;;;;;;;8.77;6.30;;;23.50;68.60;;;24.13;51.37;95079.63;5000398;28;20617;-59
2022/08/10 00:43:15;;;;;;;6.90;6.03;;;23.50;69.10;;;24.10;52.21;95079.25;4998165;28;20540;-59
2022/08/10 00:45:42;;;;;;;6.80;6.20;;;23.50;69.50;;;24.08;51.63;95086.72;5001666;28;20493;-58
2022/08/10 00:48:09;;;;;;;10.90;6.13;;;23.40;69.60;;;24.06;51.77;95086.94;4999036;28;20849;-64
2022/08/10 00:50:37;;;;;;;10.63;6.10;;;23.40;69.90;;;24.03;52.57;95091.91;5000239;28;20531;-63
2022/08/10 00:53:06;;;;;;;6.80;6.20;;;23.40;70.20;;;23.99;52.29;95084.28;4999908;28;20477;-59
2022/08/10 00:55:34;;;;;;;8.20;6.70;;;23.40;70.20;;;23.95;52.21;95093.84;4999831;28;20535;-62
2022/08/10 00:58:01;;;;;;;7.17;6.57;;;23.30;70.20;;;23.92;52.57;95088.91;5001158;28;20900;-62
2022/08/10 01:00:28;;;;;;;6.87;5.63;;;23.30;70.90;;;23.87;52.68;95086.03;4999096;28;20477;-59
2022/08/10 01:02:55;;;;;;;6.73;6.13;;;23.30;70.90;;;23.85;52.50;95098.84;4998621;28;20550;-61
2022/08/10 01:05:23;;;;;;;6.37;5.80;;;23.20;71.30;;;23.84;52.76;95101.72;5001529;28;20560;-62
2022/08/10 01:08:17;;;;;;;8.70;6.13;;;23.20;71.60;;;23.83;53.47;95089.31;4997469;28;20482;-60
2022/08/10 01:10:52;;;;;;;6.33;5.83;;;23.20;72.50;;;23.77;53.33;95094.53;4995754;28;20532;-59
2022/08/10 01:13:25;;;;;;;7.90;6.50;;;23.20;72.20;;;23.76;53.11;95094.75;5000711;28;20459;-62
2022/08/10 01:15:58;;;;;;;7.10;6.07;;;23.10;72.20;;;23.74;53.29;95091.47;4998219;28;20500;-59
2022/08/10 01:18:38;;;;;;;8.40;6.70;;;23.10;72.50;;;23.72;53.21;95098.91;5000996;28;20473;-63
2022/08/10 01:21:53;;;;;;;8.87;5.57;;;23.10;72.80;;;23.68;53.95;95092.34;4996932;28;21034;-61
2022/08/10 01:25:03;;;;;;;10.43;6.37;;;23.10;73.00;;;23.63;54.55;95084.94;5000986;28;20576;-63
2022/08/10 01:27:35;;;;;;;6.13;5.63;;;23.00;73.80;;;23.61;54.09;95087.00;5000787;28;20482;-59
2022/08/10 01:30:06;;;;;;;7.30;6.23;;;23.00;73.80;;;23.59;53.82;95094.44;5000806;28;20450;-63
2022/08/10 01:32:45;;;;;;;7.40;5.90;;;23.00;74.10;;;23.55;54.29;95090.56;4998813;28;21005;-61
2022/08/10 01:35:17;;;;;;;7.90;6.10;;;22.90;74.00;;;23.53;53.65;95090.78;4995632;28;20520;-63
2022/08/10 01:37:52;;;;;;;8.50;6.73;;;22.90;73.90;;;23.46;53.45;95095.34;5004415;28;20469;-62
2022/08/10 01:40:24;;;;;;;5.67;5.27;;;22.90;73.80;;;23.42;54.02;95091.44;5002083;28;20458;-63
2022/08/10 01:42:51;;;;;;;6.47;5.90;;;22.80;73.90;;;23.36;53.49;95089.59;5004865;28;20473;-63
2022/08/10 01:45:20;;;;;;;7.00;6.23;;;22.80;74.10;;;23.31;53.45;95092.13;4999823;28;20937;-62
2022/08/10 01:50:36;;;;;;;7.53;6.83;;;22.60;74.30;;;23.23;53.79;95085.94;5002654;28;20428;-61
2022/08/10 01:53:06;;;;;;;7.03;6.43;;;22.60;75.00;;;23.20;54.47;95083.69;5001738;28;20905;-62
2022/08/10 01:55:33;;;;;;;6.03;5.53;;;22.60;75.30;;;23.19;54.01;95078.53;5002769;28;20503;-59
2022/08/10 01:58:03;;;;;;;6.70;6.10;;;22.60;76.00;;;23.17;54.47;95077.94;5004203;28;20531;-62
2022/08/10 02:00:33;;;;;;;6.97;6.27;;;22.60;76.00;;;23.15;54.50;95078.16;5003828;28;20455;-62
2022/08/10 02:03:00;;;;;;;5.83;5.40;;;22.60;76.00;;;23.14;54.81;95065.75;5001071;28;20474;-59
2022/08/10 02:05:28;;;;;;;11.17;6.27;;;22.60;76.30;;;23.13;54.51;95068.66;5003180;28;20619;-61
2022/08/10 02:07:56;;;;;;;12.77;5.40;;;22.50;76.00;;;23.06;54.39;95065.97;5001014;28;20481;-60
2022/08/10 02:10:23;;;;;;;5.80;5.30;;;22.50;75.70;;;23.01;54.79;95076.53;5003332;28;20453;-63
2022/08/10 02:12:55;;;;;;;6.37;5.80;;;22.40;75.80;;;22.96;54.17;95081.69;5002322;28;20634;-63
2022/08/10 02:15:22;;;;;;;6.23;5.80;;;22.30;75.70;;;22.92;54.46;95084.81;5000631;28;20524;-59
2022/08/10 02:17:54;;;;;;;9.47;5.87;;;22.30;76.00;;;22.92;54.31;95082.13;5004934;28;20481;-59
2022/08/10 02:20:24;;;;;;;6.27;5.83;;;22.30;76.50;;;22.92;54.65;95082.13;5001020;28;20455;-60
2022/08/10 02:22:58;;;;;;;6.97;6.13;;;22.30;77.20;;;22.93;54.61;95085.66;5001713;28;20851;-63
2022/08/10 02:25:25;;;;;;;6.40;5.87;;;22.30;76.60;;;22.94;54.39;95081.91;5003026;28;20453;-62
2022/08/10 02:27:53;;;;;;;6.13;5.63;;;22.30;77.00;;;22.95;54.83;95077.38;5003998;28;20496;-63
2022/08/10 02:30:20;;;;;;;6.73;6.17;;;22.30;77.30;;;22.92;55.08;95087.47;5000900;28;20528;-59
2022/08/10 02:32:48;;;;;;;5.53;4.90;;;22.30;77.20;;;22.88;54.71;95083.59;5003143;28;20568;-59
2022/08/10 02:35:16;;;;;;;8.33;5.90;;;22.30;77.10;;;22.85;55.16;95084.03;4999327;28;20513;-59
2022/08/10 02:37:46;;;;;;;7.70;6.57;;;22.20;77.40;;;22.85;54.90;95083.19;5003686;28;20644;-63
2022/08/10 02:40:13;;;;;;;8.87;5.80;;;22.20;78.00;;;22.83;55.43;95088.75;5000996;28;20575;-60
2022/08/10 02:42:45;;;;;;;6.70;5.70;;;22.20;78.20;;;22.83;55.62;95088.75;5002474;28;20481;-63
2022/08/10 02:45:16;;;;;;;6.60;6.00;;;22.20;78.80;;;22.85;55.32;95088.53;5001266;28;20451;-62
2022/08/10 02:47:46;;;;;;;7.87;6.20;;;22.20;79.20;;;22.84;55.21;95082.34;4998603;28;20585;-60
2022/08/10 02:50:19;;;;;;;6.07;5.50;;;22.20;79.10;;;22.87;55.51;95091.84;5000228;28;20458;-62
2022/08/10 02:52:48;;;;;;;6.40;5.80;;;22.30;79.50;;;22.88;55.29;95093.47;5005157;28;20549;-63
2022/08/10 02:55:20;;;;;;;7.07;6.43;;;22.30;79.60;;;22.88;55.77;95099.69;5000846;28;21007;-60
2022/08/10 02:57:51;;;;;;;6.60;5.60;;;22.30;79.60;;;22.88;55.36;95088.97;5002564;28;20544;-63
2022/08/10 03:00:18;;;;;;;6.40;5.90;;;22.30;80.00;;;22.90;55.48;95094.94;4999569;28;20437;-63
2022/08/10 03:02:46;;;;;;;12.03;5.77;;;22.30;80.90;;;22.90;55.56;95092.25;5000286;28;20541;-62
2022/08/10 03:05:16;;;;;;;14.40;6.03;;;22.30;80.10;;;22.92;55.96;95097.41;5001849;28;20559;-60
2022/08/10 03:07:47;;;;;;;7.97;6.57;;;22.30;80.30;;;22.91;55.38;95093.91;5001753;28;20491;-68
2022/08/10 03:10:17;;;;;;;6.50;5.90;;;22.30;80.40;;;22.90;56.03;95097.63;5003864;28;20758;-60
2022/08/10 03:12:45;;;;;;;8.13;7.33;;;22.30;81.20;;;22.91;55.95;95091.22;4999619;28;20480;-59
2022/08/10 03:15:13;;;;;;;6.20;5.70;;;22.30;81.00;;;22.90;55.84;95097.63;5000822;28;20461;-61
2022/08/10 03:17:41;;;;;;;6.30;5.80;;;22.30;81.40;;;22.91;56.16;95099.28;5000284;28;21079;-62
2022/08/10 03:20:09;;;;;;;6.70;6.00;;;22.30;81.50;;;22.92;56.23;95098.22;5001376;28;20472;-59
2022/08/10 03:22:39;;;;;;;16.13;7.30;;;22.30;81.50;;;22.91;56.16;95093.91;5001186;28;20509;-64
2022/08/10 03:25:08;;;;;;;8.37;6.70;;;22.30;81.50;;;22.91;56.01;95098.44;4999979;28;21025;-59
2022/08/10 03:27:36;;;;;;;6.60;5.87;;;22.30;81.50;;;22.92;55.89;95114.31;4997161;28;20501;-59
2022/08/10 03:30:05;;;;;;;10.00;6.50;;;22.30;81.30;;;22.90;55.65;95099.47;5001095;28;21202;-63
2022/08/10 03:32:32;;;;;;;7.87;7.07;;;22.30;81.20;;;22.90;55.95;95107.53;5002390;28;20473;-62
2022/08/10 03:35:00;;;;;;;10.10;6.20;;;22.30;81.40;;;22.90;56.16;95108.34;4997594;28;20449;-60
2022/08/10 03:37:28;;;;;;;8.10;5.90;;;22.30;81.70;;;22.91;56.04;95109.16;5000601;28;20561;-62
2022/08/10 03:39:56;;;;;;;7.20;6.50;;;22.30;82.20;;;22.92;56.22;95116.19;4999932;28;20466;-62
2022/08/10 03:42:24;;;;;;;7.80;7.00;;;22.30;82.20;;;22.92;55.90;95117.00;5002201;28;20476;-59
2022/08/10 03:44:51;;;;;;;6.20;5.57;;;22.30;82.20;;;22.92;56.01;95117.00;4997703;28;20952;-61
2022/08/10 03:47:19;;;;;;;14.10;6.37;;;22.30;82.20;;;22.95;55.56;95110.38;5001490;28;20509;-61
2022/08/10 03:49:46;;;;;;;11.07;7.13;;;22.30;82.20;;;22.98;55.68;95122.56;4995576;28;21026;-59
2022/08/10 03:52:14;;;;;;;15.00;6.70;;;22.40;82.30;;;23.00;56.08;95123.97;5002866;28;20504;-62
2022/08/10 03:54:41;;;;;;;6.57;5.97;;;22.40;83.00;;;23.03;55.99;95118.19;5001348;28;20875;-59
2022/08/10 03:57:10;;;;;;;7.40;6.30;;;22.40;82.30;;;23.03;55.82;95120.06;5001594;28;20473;-61
2022/08/10 03:59:37;;;;;;;9.00;7.10;;;22.40;82.30;;;23.02;55.44;95119.25;5000040;28;20634;-59
2022/08/10 04:02:05;;;;;;;7.40;6.57;;;22.40;82.60;;;23.02;55.93;95131.81;5001523;28;20477;-59
2022/08/10 04:04:33;;;;;;;8.40;6.60;;;22.40;83.00;;;23.03;55.89;95120.06;4998631;28;20457;-60
2022/08/10 04:07:00;;;;;;;6.50;6.00;;;22.40;83.60;;;23.04;56.27;95124.41;4998826;28;20553;-61
2022/08/10 04:09:29;;;;;;;9.43;6.33;;;22.50;83.80;;;23.06;56.49;95125.00;4998485;28;20515;-60
2022/08/10 04:11:56;;;;;;;14.10;6.70;;;22.40;84.00;;;23.07;56.40;95129.34;5001083;28;20473;-58
2022/08/10 04:14:25;;;;;;;43.77;7.97;;;22.50;84.60;;;23.09;56.56;95121.94;4998604;28;20477;-59
2022/08/10 04:16:52;;;;;;;12.83;8.07;;;22.50;84.90;;;23.13;56.59;95125.84;5001346;28;20473;-59
2022/08/10 04:19:20;;;;;;;11.23;7.43;;;22.50;85.10;;;23.17;56.80;95128.94;4996429;28;20454;-59
2022/08/10 04:21:51;;;;;;;9.40;6.67;;;22.60;85.50;;;23.19;56.82;95130.38;4997697;28;20477;-62
2022/08/10 04:24:21;;;;;;;9.20;6.97;;;22.60;86.30;;;23.25;56.72;95132.22;5000539;28;20607;-62
2022/08/10 04:26:48;;;;;;;9.73;7.47;;;22.60;86.60;;;23.29;57.29;95142.53;4997398;28;21001;-60
2022/08/10 04:29:15;;;;;;;13.77;7.97;;;22.60;86.30;;;23.32;56.91;95134.84;4999254;28;20458;-63
2022/08/10 04:31:44;;;;;;;11.97;7.77;;;22.70;87.00;;;23.38;56.97;95138.56;4998253;28;20474;-61
2022/08/10 04:34:12;;;;;;;10.43;8.43;;;22.70;87.30;;;23.45;57.22;95133.97;4997386;28;20456;-59
2022/08/10 04:36:39;;;;;;;10.03;8.03;;;22.80;87.60;;;23.52;57.12;95136.63;4998899;28;20473;-59
2022/08/10 04:39:06;;;;;;;21.23;8.13;;;22.90;87.90;;;23.59;56.80;95140.94;4999675;28;20505;-60
2022/08/10 04:41:34;;;;;;;12.30;7.47;;;22.90;87.70;;;23.65;56.84;95133.06;4998526;28;20474;-58
2022/08/10 04:44:01;;;;;;;9.70;7.73;;;23.00;87.50;;;23.71;57.40;95132.19;5001571;28;20847;-60
2022/08/10 04:46:29;;;;;;;7.47;6.77;;;23.00;87.50;;;23.75;56.83;95136.06;4997909;28;20486;-59
2022/08/10 04:48:57;;;;;;;12.43;7.40;;;23.10;87.60;;;23.79;56.54;95142.66;5001081;28;20469;-60
2022/08/10 04:51:25;;;;;;;8.07;6.50;;;23.10;87.70;;;23.82;57.31;95144.94;4998419;28;20839;-59
2022/08/10 04:53:52;;;;;;;10.50;7.87;;;23.20;87.70;;;23.85;56.46;95141.03;5005377;28;20454;-60
2022/08/10 04:56:19;;;;;;;13.00;7.90;;;23.20;87.70;;;23.86;57.33;95139.97;4997111;28;20482;-60
2022/08/10 04:58:46;;;;;;;9.10;8.20;;;23.30;88.10;;;23.88;57.17;95143.28;5003049;28;20446;-58
2022/08/10 05:01:14;;;;;;;20.40;9.67;;;23.20;88.00;;;23.87;56.80;95142.44;4997660;28;20564;-62
2022/08/10 05:03:41;;;;;;;23.20;10.07;;;23.20;88.10;;;23.88;57.26;95140.59;4995731;28;20470;-61
2022/08/10 05:06:10;;;;;;;44.77;15.73;;;23.20;88.10;;;23.91;56.74;95135.59;5000681;28;20451;-60
2022/08/10 05:08:37;;;;;;;13.90;8.40;;;23.30;88.70;;;23.94;57.34;95142.41;5000217;28;20449;-59
2022/08/10 05:11:05;;;;;;;15.70;9.27;;;23.30;89.60;;;23.96;56.68;95143.81;4999879;28;20453;-56
2022/08/10 05:13:32;;;;;;;16.73;8.77;;;23.30;88.80;;;23.99;57.51;95140.72;5003430;28;20454;-58
2022/08/10 05:15:59;;;;;;;9.47;8.47;;;23.40;89.20;;;24.05;56.75;95139.03;5000907;28;20509;-62
2022/08/10 05:18:27;;;;;;;16.10;9.80;;;23.40;89.70;;;24.10;57.23;95133.81;5002675;28;20457;-59
2022/08/10 05:20:54;;;;;;;21.50;11.30;;;23.50;89.90;;;24.13;58.08;95138.75;4996762;28;20446;-61
2022/08/10 05:23:22;;;;;;;16.43;10.90;;;23.50;90.30;;;24.17;57.84;95145.34;5004252;28;21012;-61
2022/08/10 05:25:50;;;;;;;12.00;10.80;;;23.50;90.00;;;24.22;58.64;95146.56;5002173;28;20446;-57
2022/08/10 05:28:17;;;;;;;20.67;10.70;;;23.60;90.80;;;24.28;57.69;95145.69;5004156;28;20492;-62
2022/08/10 05:30:44;;;;;;;20.97;9.80;;;23.60;90.60;;;24.34;57.73;95151.00;5002667;28;20590;-58
2022/08/10 05:33:11;;;;;;;13.77;11.00;;;23.70;90.30;;;24.39;58.11;95147.66;5002833;28;20761;-58
2022/08/10 05:35:39;;;;;;;12.00;10.00;;;23.70;90.50;;;24.46;57.77;95147.59;5001856;28;20458;-62
2022/08/10 05:38:06;;;;;;;13.23;10.03;;;23.80;90.50;;;24.62;57.90;95147.09;5004002;28;20481;-60
2022/08/10 05:40:36;;;;;;;10.33;9.13;;;23.90;90.50;;;24.78;56.94;95144.88;5002662;28;20519;-60
2022/08/10 05:43:03;;;;;;;12.50;10.10;;;24.00;90.20;;;24.98;56.73;95141.97;5004212;28;20538;-59
2022/08/10 05:45:31;;;;;;;12.30;10.40;;;24.20;90.20;;;25.17;56.08;95146.31;5001669;28;20511;-58
2022/08/10 05:47:58;;;;;;;12.00;10.87;;;24.40;90.10;;;25.36;55.74;95149.03;5002366;28;20497;-59
2022/08/10 05:50:28;;;;;;;11.40;10.30;;;24.50;89.30;;;25.55;55.33;95150.66;5003774;28;21073;-61
2022/08/10 05:52:55;;;;;;;11.90;10.80;;;24.80;88.60;;;25.69;55.17;95145.94;5003017;28;20556;-61
2022/08/10 05:55:23;;;;;;;11.23;10.23;;;24.90;87.80;;;25.89;55.00;95159.13;5002648;28;20986;-59
2022/08/10 05:57:51;;;;;;;17.20;11.80;;;25.10;87.20;;;26.08;54.71;95151.81;5004595;28;20485;-61
2022/08/10 06:00:20;;;;;;;13.33;11.93;;;25.30;86.60;;;26.23;54.30;95159.50;5004258;28;20453;-61
2022/08/10 06:02:49;;;;;;;11.63;10.60;;;25.40;85.40;;;26.38;53.89;95148.25;4999851;28;20553;-62
2022/08/10 06:05:19;;;;;;;12.57;11.47;;;25.60;84.90;;;26.54;53.59;95154.88;5004026;28;20539;-61
2022/08/10 06:07:51;;;;;;;18.43;11.03;;;25.70;84.70;;;26.69;53.55;95165.22;5000892;28;20525;-60
2022/08/10 06:10:18;;;;;;;15.77;11.57;;;25.90;83.70;;;26.80;52.87;95144.69;5004210;28;20548;-59
2022/08/10 06:12:47;;;;;;;12.30;11.03;;;26.00;83.40;;;26.99;52.83;95151.59;5001349;28;20477;-62
2022/08/10 06:15:15;;;;;;;14.03;12.03;;;26.10;82.40;;;27.15;52.10;95152.75;5004650;28;20457;-59
2022/08/10 06:17:42;;;;;;;14.30;12.80;;;26.30;81.50;;;27.27;51.98;95155.44;5001338;28;20480;-63
2022/08/10 06:20:11;;;;;;;14.27;12.30;;;26.50;80.80;;;27.42;51.73;95155.00;4999153;28;20449;-63
2022/08/10 06:22:38;;;;;;;16.40;12.70;;;26.60;80.30;;;27.62;51.80;95145.63;5002281;28;21024;-61
2022/08/10 06:25:07;;;;;;;13.10;10.67;;;26.70;79.90;;;27.81;51.48;95147.09;5004882;28;20511;-59
2022/08/10 06:27:35;;;;;;;15.77;12.83;;;26.90;79.30;;;28.00;51.22;95147.75;5003468;28;20497;-59
2022/08/10 06:30:02;;;;;;;16.60;13.40;;;27.10;78.70;;;28.20;50.57;95151.88;5002279;28;20457;-62
2022/08/10 06:32:31;;;;;;;16.50;13.00;;;27.30;77.70;;;28.38;49.70;95157.06;5001883;28;20560;-59
2022/08/10 06:34:58;;;;;;;15.80;13.50;;;27.50;76.50;;;28.55;50.42;95161.66;5000134;28;20449;-61
2022/08/10 06:37:29;;;;;;;16.30;13.60;;;27.70;76.30;;;28.74;49.64;95162.28;5001327;28;20469;-61
2022/08/10 06:39:56;;;;;;;17.43;13.67;;;27.80;75.40;;;28.93;48.64;95168.25;5000554;28;20923;-61
2022/08/10 06:42:28;;;;;;;20.30;14.23;;;28.00;73.90;;;29.05;48.63;95165.41;5000966;28;20486;-58
2022/08/10 06:44:58;;;;;;;18.33;13.37;;;28.20;73.30;;;29.22;48.18;95163.53;5000739;28;20446;-59
2022/08/10 06:47:31;;;;;;;18.33;15.20;;;28.30;72.90;;;29.38;48.34;95161.84;5004140;28;20497;-62
2022/08/10 06:50:01;;;;;;;17.90;13.90;;;28.50;72.30;;;29.57;47.15;95162.34;5003964;28;20449;-58
2022/08/10 06:52:30;;;;;;;16.93;13.60;;;28.70;70.80;;;29.73;47.52;95154.41;5005851;28;20543;-62
2022/08/10 06:54:58;;;;;;;14.70;13.40;;;28.80;69.70;;;29.84;46.46;95156.22;5003358;28;20457;-58
2022/08/10 06:57:26;;;;;;;14.33;12.97;;;28.90;69.20;;;29.94;46.50;95158.19;5004174;28;21040;-61
2022/08/10 06:59:54;;;;;;;16.13;13.00;;;29.10;68.10;;;30.03;45.84;95156.66;4999350;28;20480;-59
2022/08/10 07:02:26;;;;;;;16.33;12.27;;;29.20;67.60;;;30.08;45.80;95147.78;5002142;28;20489;-58
2022/08/10 07:04:59;;;;;;;16.50;12.07;;;29.20;67.10;;;30.15;45.23;95148.38;5003208;28;20460;-58
2022/08/10 07:07:29;;;;;;;13.20;11.80;;;29.30;66.60;;;30.26;46.13;95146.59;5001546;28;21173;-63
2022/08/10 07:09:57;;;;;;;12.77;11.40;;;29.40;66.40;;;30.47;46.10;95153.03;5002336;28;20459;-57
2022/08/10 07:12:25;;;;;;;13.47;11.17;;;29.50;66.10;;;30.70;45.03;95152.66;4998676;28;20477;-59
2022/08/10 07:14:53;;;;;;;13.17;11.87;;;29.70;65.30;;;30.88;44.44;95147.94;5000855;28;20548;-60
2022/08/10 07:17:21;;;;;;;15.43;13.93;;;29.90;64.40;;;30.90;43.99;95143.84;5000183;28;20556;-61
2022/08/10 07:19:51;;;;;;;20.40;13.13;;;30.00;63.60;;;30.96;44.29;95136.56;4998566;28;21044;-61
2022/08/10 07:22:21;;;;;;;14.30;12.90;;;30.00;62.70;;;31.07;44.25;95143.72;5001146;28;20933;-62
2022/08/10 07:24:48;;;;;;;17.70;13.20;;;30.20;62.50;;;31.20;43.59;95138.91;5002919;28;20679;-61
2022/08/10 07:27:16;;;;;;;14.57;12.70;;;30.30;62.20;;;31.21;42.90;95137.84;5000894;28;20293;-61
2022/08/10 07:29:43;;;;;;;15.57;13.67;;;30.30;61.30;;;31.24;43.31;95134.59;5002545;28;20289;-60
2022/08/10 07:32:11;;;;;;;12.57;11.13;;;30.40;61.10;;;31.45;42.88;95144.47;4998012;28;20231;-62
2022/08/10 07:34:38;;;;;;;11.47;9.83;;;30.50;61.00;;;31.58;42.69;95143.19;5001713;28;20213;-60
2022/08/10 07:37:07;;;;;;;18.33;9.73;;;30.70;59.90;;;31.77;41.65;95132.66;5000723;28;20482;-60
2022/08/10 07:39:37;;;;;;;16.80;11.40;;;30.80;59.00;;;31.95;41.86;95136.78;5002101;28;20210;-59
2022/08/10 07:42:06;;;;;;;13.30;10.43;;;31.00;58.80;;;32.13;40.96;95127.34;4999769;28;20304;-61
2022/08/10 07:44:33;;;;;;;12.07;10.40;;;31.20;57.70;;;32.32;40.88;95134.97;4997056;28;20230;-59
2022/08/10 07:47:02;;;;;;;18.20;10.87;;;31.40;57.20;;;32.47;39.97;95136.88;5001481;28;20222;-63
2022/08/10 07:49:35;;;;;;;10.57;9.40;;;31.60;56.20;;;32.51;39.93;95141.50;5001546;28;20630;-62
2022/08/10 07:52:05;;;;;;;11.03;9.93;;;31.60;56.20;;;32.53;39.83;95139.34;4999393;28;20230;-60
2022/08/10 07:54:41;;;;;;;10.40;9.40;;;31.70;55.80;;;32.56;39.35;95137.16;5001292;28;20683;-63
2022/08/10 07:57:12;;;;;;;12.37;8.87;;;31.70;55.50;;;32.60;38.66;95135.53;4999689;28;20284;-62
2022/08/10 07:59:43;;;;;;;8.80;8.10;;;31.80;54.70;;;32.69;39.32;95132.00;5000024;28;20198;-61
2022/08/10 08:02:18;;;;;;;9.07;8.17;;;31.80;54.80;;;32.85;38.97;95130.06;4999440;28;20219;-60
2022/08/10 08:04:45;;;;;;;9.20;8.40;;;31.90;54.40;;;33.04;38.68;95129.50;4993529;28;20734;-62
2022/08/10 08:07:13;;;;;;;8.73;8.07;;;32.10;54.00;;;33.24;38.88;95132.19;5002929;28;20222;-60
2022/08/10 08:09:42;;;;;;;9.45;8.55;;;32.30;54.00;;;33.44;38.38;95126.97;4998910;28;20712;-60
2022/08/10 08:12:09;;;;;;;10.10;7.80;;;32.50;53.70;;;33.62;38.06;95136.44;5002584;28;20288;-62
2022/08/10 08:14:37;;;;;;;9.13;8.43;;;32.70;53.00;;;33.83;36.83;95129.81;4999849;28;20206;-62
2022/08/10 08:17:04;;;;;;;10.63;8.05;;;32.90;52.00;;;34.00;37.40;95124.00;5001381;28;20229;-62
2022/08/10 08:19:31;;;;;;;9.82;8.95;;;33.10;51.80;;;34.16;36.77;95122.00;4998811;28;20207;-62
2022/08/10 08:21:59;;;;;;;16.90;9.07;;;33.20;51.60;;;34.32;36.95;95121.91;4999326;28;20614;-59
2022/08/10 08:24:26;;;;;;;10.27;9.02;;;33.40;51.50;;;34.50;36.68;95128.59;5002487;28;20590;-58
2022/08/10 08:26:55;;;;;;;9.40;8.13;;;33.50;51.50;;;34.57;36.51;95121.72;5003692;28;20272;-62
2022/08/10 08:29:22;;;;;;;8.95;8.05;;;33.70;50.50;;;34.69;35.69;95125.97;4997337;28;20312;-62
2022/08/10 08:31:49;;;;;;;10.50;7.78;;;33.70;49.90;;;34.83;35.93;95124.25;5001441;28;20218;-63
2022/08/10 08:34:16;;;;;;;8.60;7.70;;;33.90;49.40;;;34.97;35.22;95125.22;5002288;28;20252;-61
2022/08/10 08:36:44;;;;;;;9.20;8.30;;;34.00;49.10;;;35.17;35.25;95124.19;5000642;28;20238;-62
2022/08/10 08:39:11;;;;;;;13.90;8.40;;;34.20;49.10;;;35.40;35.00;95120.94;5003128;28;20252;-62
2022/08/10 08:42:13;;;;;;;9.55;7.60;;;34.40;49.10;;;35.62;33.90;95118.50;4997753;28;20227;-61
2022/08/10 08:44:50;;;;;;;10.57;8.00;;;34.60;48.00;;;35.87;33.60;95119.31;5000100;28;20637;-60
2022/08/10 08:47:37;;;;;;;8.43;7.63;;;34.90;47.40;;;36.05;33.21;95109.44;5003267;28;20242;-61
2022/08/10 08:50:11;;;;;;;16.48;7.13;;;35.10;47.30;;;36.24;33.54;95112.19;5001755;28;20284;-64
2022/08/10 08:52:51;;;;;;;14.57;7.75;;;35.30;47.40;;;36.43;33.13;95109.47;5000763;28;20234;-59
2022/08/10 08:55:34;;;;;;;9.38;8.68;;;35.50;46.60;;;36.60;32.50;95097.94;5000928;28;21265;-61
2022/08/10 08:58:20;;;;;;;8.75;8.05;;;35.60;46.10;;;36.73;32.47;95105.41;5001147;28;20322;-61
2022/08/10 09:01:06;;;;;;;8.73;6.18;;;35.80;46.30;;;36.81;31.71;95108.59;4996062;28;20681;-61
2022/08/10 09:04:02;;;;;;;8.15;4.43;;;35.90;44.80;;;36.87;31.28;95101.91;5002617;28;20190;-61
2022/08/10 09:07:02;;;;;;;9.43;4.90;;;35.90;43.70;;;36.80;30.83;95101.50;4984459;28;20222;-63
2022/08/10 09:09:59;;;;;;;3.97;3.67;;;35.90;43.10;;;36.51;30.64;95094.28;5001820;28;20670;-61
2022/08/10 09:12:41;;;;;;;9.00;4.43;;;35.70;42.80;;;36.36;31.17;95093.41;4999683;28;20218;-61
2022/08/10 09:15:18;;;;;;;10.90;5.10;;;35.60;43.00;;;36.29;31.16;95092.16;5004298;28;20275;-62
2022/08/10 09:17:53;;;;;;;5.45;4.30;;;35.40;42.70;;;36.24;31.00;95095.78;4998779;28;20549;-61
2022/08/10 09:20:26;;;;;;;5.95;4.13;;;35.40;43.40;;;36.31;31.43;95096.22;4998773;28;20197;-61
2022/08/10 09:22:57;;;;;;;6.57;4.40;;;35.40;42.80;;;36.42;30.80;95097.69;5001273;28;20863;-57
2022/08/10 09:25:28;;;;;;;5.85;5.03;;;35.50;42.80;;;36.50;31.49;95085.25;5003853;28;20261;-60
2022/08/10 09:28:05;;;;;;;4.82;4.53;;;35.50;42.90;;;36.62;31.14;95095.72;5001207;28;20239;-61
2022/08/10 09:30:41;;;;;;;4.57;4.28;;;35.70;43.60;;;36.80;30.79;95096.00;4998469;28;20737;-61
2022/08/10 09:33:11;;;;;;;8.50;4.45;;;35.80;42.70;;;36.92;29.95;95096.31;4999659;28;20225;-60
2022/08/10 09:35:52;;;;;;;4.57;4.28;;;35.90;41.90;;;37.03;29.77;95091.44;5000523;28;21014;-61
2022/08/10 09:38:29;;;;;;;4.43;3.88;;;36.10;42.00;;;37.12;30.28;95090.47;4999194;28;20209;-62
2022/08/10 09:41:03;;;;;;;4.72;4.32;;;36.20;41.90;;;37.10;29.98;95078.97;5001479;28;20285;-60
2022/08/10 09:43:42;;;;;;;11.40;4.05;;;36.20;41.80;;;37.12;29.97;95084.97;5001953;28;20212;-60
2022/08/10 09:46:19;;;;;;;4.80;3.58;;;36.30;41.90;;;37.18;29.87;95082.13;4998548;28;20194;-61
2022/08/10 09:49:01;;;;;;;4.40;4.00;;;36.30;41.10;;;37.15;29.37;95075.31;5000881;28;20210;-60
2022/08/10 09:51:32;;;;;;;7.57;3.90;;;36.30;41.20;;;37.10;30.06;95070.75;5000454;28;20218;-61
2022/08/10 09:54:03;;;;;;;5.22;4.22;;;36.30;41.50;;;37.10;29.72;95073.47;4998691;28;20198;-63
2022/08/10 09:56:36;;;;;;;4.65;3.53;;;36.30;41.20;;;37.13;29.33;95067.38;4996838;28;20227;-62
2022/08/10 09:59:12;;;;;;;4.30;4.00;;;36.30;40.60;;;37.10;29.20;95069.94;5003288;28;20197;-59
2022/08/10 10:01:47;;;;;;;12.48;5.43;;;36.20;40.60;;;37.01;28.50;95069.81;5005154;28;20221;-59
2022/08/10 10:04:22;;;;;;;4.20;3.78;;;36.20;40.10;;;36.73;29.16;95072.50;5006366;28;20197;-62
2022/08/10 10:06:54;;;;;;;4.65;4.35;;;36.00;40.00;;;36.45;29.77;95062.59;5002199;28;20284;-64
2022/08/10 10:09:29;;;;;;;4.15;3.80;;;35.70;40.90;;;36.26;30.79;95057.97;5008282;28;20273;-61
2022/08/10 10:12:08;;;;;;;10.48;4.55;;;35.50;41.30;;;36.04;28.81;95064.84;5004145;28;20213;-61
2022/08/10 10:17:37;;;;;;;4.18;3.13;;;35.00;41.10;;;35.52;30.53;95067.47;4999937;28;20573;-61
2022/08/10 10:20:09;;;;;;;3.90;3.67;;;34.80;41.60;;;35.26;30.71;95064.22;5001800;28;20248;-62
2022/08/10 10:22:50;;;;;;;5.38;4.57;;;34.60;42.20;;;35.03;31.68;95065.84;5003330;28;20214;-62
2022/08/10 10:25:23;;;;;;;4.00;3.80;;;34.30;42.60;;;34.86;31.93;95063.56;5000851;28;20214;-61
2022/08/10 10:28:02;;;;;;;5.40;3.97;;;34.10;43.10;;;34.70;31.60;95062.03;5001972;28;20242;-61
2022/08/10 10:30:35;;;;;;;5.85;3.58;;;33.90;43.50;;;34.56;32.30;95068.16;4999896;28;20580;-63
2022/08/10 10:33:12;;;;;;;7.60;4.28;;;33.80;43.70;;;34.35;32.20;95063.97;5003801;28;20253;-60
2022/08/10 10:35:44;;;;;;;5.07;4.47;;;33.60;44.00;;;34.10;33.06;95060.34;4999783;28;20265;-59